Flight Track Log - Related Links

Times and Time Zones

All times are in EST time to prevent confusion due to time zone crossing. See the EJA941 flight status page for this flight to view local times or setup timezone preferences in your user account.

Time Position Orientation Groundspeed Altitude Reporting Facility
EST Latitude Longitude Course Direction KTS MPH feet Rate Location/Type
Thu 01:31:17 PM 33.4333 -111.9667 90° East 193 222 2,900  Level Phoenix TRACON
Thu 01:31:53 PM 33.4333 -111.9333 90° East 215 247 4,800 3,750 Climbing Phoenix TRACON
Thu 01:32:53 PM 33.4500 -111.8500 76° East 253 291 8,900 3,084 Climbing Phoenix TRACON
Thu 01:33:40 PM 33.4528 -111.7933 87° East 259 298 10,300 2,917 Climbing Albuquerque Center
Thu 01:34:42 PM 33.4628 -111.7100 82° East 255 293 14,200 2,806 Climbing Albuquerque Center
Thu 01:35:44 PM 33.4775 -111.5939 81° East 304 350 16,100 1,452 Climbing Albuquerque Center
Thu 01:36:46 PM 33.4911 -111.4775 82° East 352 405 17,200 1,016 Climbing Albuquerque Center
Thu 01:37:48 PM 33.5058 -111.3461 82° East 395 455 18,200 1,065 Climbing Albuquerque Center
Thu 01:38:50 PM 33.5217 -111.2028 82° East 431 496 19,400 1,355 Climbing Albuquerque Center
Thu 01:39:52 PM 33.5386 -111.0550 82° East 449 517 21,000 1,839 Climbing Albuquerque Center
Thu 01:40:54 PM 33.5642 -110.8719 80° East 463 533 23,200 1,935 Climbing Albuquerque Center
Thu 01:41:56 PM 33.6106 -110.7261 69° East 468 539 25,000 1,742 Climbing Albuquerque Center
Thu 01:42:58 PM 33.6581 -110.5772 69° East 476 548 26,800 1,728 Climbing Albuquerque Center
Thu 01:44:01 PM 33.7058 -110.4242 69° East 486 559 28,600 1,742 Climbing Albuquerque Center
Thu 01:45:02 PM 33.7644 -110.2425 69° East 502 578 30,400 1,548 Climbing Albuquerque Center
Thu 01:46:05 PM 33.8178 -110.0764 69° East 520 598 31,800 1,680 Climbing Albuquerque Center
Thu 01:47:07 PM 33.8717 -109.9075 69° East 533 613 33,900 1,935 Climbing Albuquerque Center
Thu 01:48:09 PM 33.9253 -109.7397 69° East 537 618 35,800 1,984 Climbing Albuquerque Center
Thu 01:49:11 PM 33.9775 -109.5747 69° East 530 610 38,000 1,597 Climbing Albuquerque Center
Thu 01:50:13 PM 34.0222 -109.4100 72° East 522 601 39,100 1,016 Climbing Albuquerque Center
Thu 01:51:15 PM 34.0672 -109.2419 72° East 522 601 40,100 871 Climbing Albuquerque Center
Thu 01:52:17 PM 34.1167 -109.0550 72° East 525 604 40,900 435 Climbing Albuquerque Center
Thu 01:53:19 PM 34.1681 -108.8656 72° East 529 609 41,000 48 Climbing Albuquerque Center
Thu 01:54:21 PM 34.2136 -108.6936 72° East 538 619 41,000  Level Albuquerque Center
Thu 01:55:23 PM 34.2611 -108.5131 72° East 552 635 41,000  Level Albuquerque Center
Thu 01:56:25 PM 34.3119 -108.3144 73° East 561 646 41,000  Level Albuquerque Center
Thu 01:57:27 PM 34.3600 -108.1342 72° East 565 650 41,000  Level Albuquerque Center
Thu 01:58:29 PM 34.4069 -107.9525 73° East 566 651 41,000  Level Albuquerque Center
Thu 01:59:31 PM 34.4528 -107.7694 73° East 569 655 41,000  Level Albuquerque Center
Thu 02:00:34 PM 34.4975 -107.5869 73° East 568 654 41,000  Level Albuquerque Center
Thu 02:01:36 PM 34.5525 -107.3689 73° East 567 652 41,000  Level Albuquerque Center
Thu 02:02:38 PM 34.6017 -107.1853 72° East 562 647 41,000  Level Albuquerque Center
Thu 02:03:40 PM 34.6492 -106.9889 74° East 563 648 41,000  Level Albuquerque Center
Thu 02:04:42 PM 34.6919 -106.8169 73° East 563 648 41,000  Level Albuquerque Center
Thu 02:05:44 PM 34.7358 -106.6353 74° East 562 647 41,000  Level Albuquerque Center
Thu 02:06:46 PM 34.7789 -106.4544 74° East 561 646 41,000  Level Albuquerque Center
Thu 02:07:48 PM 34.8303 -106.2381 74° East 558 642 41,000 -48 Level Albuquerque Center
Thu 02:08:50 PM 34.8736 -106.0542 74° East 566 651 40,900  Descending Albuquerque Center
Thu 02:09:52 PM 34.9169 -105.8731 74° East 563 648 41,000 48 Climbing Albuquerque Center
Thu 02:10:54 PM 34.9594 -105.6964 74° East 553 636 41,000  Level Albuquerque Center
Thu 02:11:56 PM 35.0028 -105.5044 75° East 557 641 41,000  Level Albuquerque Center
Thu 02:12:59 PM 35.0456 -105.3192 74° East 560 644 41,000  Level Albuquerque Center
Thu 02:14:00 PM 35.0886 -105.1339 74° East 562 647 41,000  Level Albuquerque Center
Thu 02:15:03 PM 35.1367 -104.9156 75° East 565 650 41,000  Level Albuquerque Center
Thu 02:16:04 PM 35.1747 -104.7283 76° East 565 650 41,000  Level Albuquerque Center
Thu 02:17:06 PM 35.2103 -104.5550 76° East 568 654 41,000 -48 Level Albuquerque Center
Thu 02:18:08 PM 35.2489 -104.3683 76° East 568 654 40,900  Descending Albuquerque Center
Thu 02:19:10 PM 35.2931 -104.1444 76° East 567 652 41,000 48 Climbing Albuquerque Center
Thu 02:20:12 PM 35.3311 -103.9575 76° East 566 651 41,000  Level Albuquerque Center
Thu 02:22:16 PM 35.4039 -103.5825 77° East 565 650 41,000  Level Albuquerque Center
Thu 02:23:18 PM 35.4406 -103.3931 77° East 566 651 41,000  Level Albuquerque Center
Thu 02:24:20 PM 35.4761 -103.2050 77° East 563 648 41,000  Level Albuquerque Center
Thu 02:25:22 PM 35.5108 -103.0169 77° East 561 646 41,000  Level Albuquerque Center
Thu 02:26:24 PM 35.5525 -102.7978 77° East 561 646 41,000  Level Albuquerque Center
Thu 02:27:26 PM 35.5872 -102.6050 77° East 563 648 41,000  Level Albuquerque Center
Thu 02:28:28 PM 35.6225 -102.4181 77° East 562 647 41,000  Level Albuquerque Center
Thu 02:29:30 PM 35.6564 -102.2297 77° East 562 647 41,000  Level Albuquerque Center
Thu 02:30:32 PM 35.6911 -102.0406 77° East 563 648 41,000  Level Albuquerque Center
Thu 02:31:34 PM 35.7250 -101.8519 77° East 562 647 41,000  Level Albuquerque Center
Thu 02:32:36 PM 35.7572 -101.6636 78° East 559 643 41,000  Level Albuquerque Center
Thu 02:33:38 PM 35.7906 -101.4742 78° East 561 646 41,000  Level Albuquerque Center
Thu 02:34:40 PM 35.8394 -101.2911 72° East 564 649 41,000  Level Albuquerque Center
Thu 02:35:42 PM 35.9167 -101.0794 66° East 561 646 41,000  Level Albuquerque Center
Thu 02:36:44 PM 35.9828 -100.8928 66° East 564 649 41,000  Level Albuquerque Center
Thu 02:37:46 PM 36.0469 -100.7158 66° East 563 648 41,000  Level Albuquerque Center
Thu 02:38:48 PM 36.1108 -100.5369 66° East 566 651 41,000  Level Albuquerque Center
Thu 02:39:50 PM 36.1750 -100.3581 66° East 566 651 41,000  Level Albuquerque Center
Thu 02:40:52 PM 36.2383 -100.1767 67° East 569 655 41,000  Level Albuquerque Center
Thu 02:41:54 PM 36.3042 -99.9950 66° East 573 659 41,000  Level Albuquerque Center
Thu 02:43:21 PM 36.3675 -99.7317 73° East 562 647 41,000  Level Kansas City Center
Thu 02:44:22 PM 36.3972 -99.5394 79° East 562 647 41,000  Level Kansas City Center
Thu 02:45:26 PM 36.4269 -99.3461 79° East 563 648 41,000  Level Kansas City Center
Thu 02:46:26 PM 36.4578 -99.1514 79° East 565 650 41,000  Level Kansas City Center
Thu 02:47:29 PM 36.4928 -98.9186 79° East 565 650 41,000  Level Kansas City Center
Thu 02:48:30 PM 36.5222 -98.7275 79° East 561 646 41,000  Level Kansas City Center
Thu 02:49:33 PM 36.5511 -98.5336 79° East 565 650 41,000  Level Kansas City Center
Thu 02:50:33 PM 36.5794 -98.3403 80° East 565 650 41,000  Level Kansas City Center
Thu 02:51:36 PM 36.6075 -98.1486 80° East 563 648 41,000  Level Kansas City Center
Thu 02:52:40 PM 36.6353 -97.9558 80° East 563 648 41,000  Level Kansas City Center
Thu 02:53:41 PM 36.6631 -97.7636 80° East 562 647 41,000  Level Kansas City Center
Thu 02:54:42 PM 36.6950 -97.5369 80° East 571 657 41,000  Level Kansas City Center
Thu 02:55:44 PM 36.7217 -97.3444 80° East 566 651 41,000  Level Kansas City Center
Thu 02:56:46 PM 36.7483 -97.1517 80° East 564 649 41,000  Level Kansas City Center
Thu 02:57:47 PM 36.7836 -96.9492 78° East 564 649 41,000  Level Kansas City Center
Thu 02:58:51 PM 36.8172 -96.7561 78° East 567 652 41,000  Level Kansas City Center
Thu 02:59:53 PM 36.8503 -96.5614 78° East 570 656 41,000  Level Kansas City Center
Thu 03:00:54 PM 36.8842 -96.3669 78° East 570 656 41,000  Level Kansas City Center
Thu 03:01:57 PM 36.9167 -96.1706 78° East 572 658 41,000  Level Kansas City Center
Thu 03:02:58 PM 36.9503 -95.9725 78° East 577 664 41,000  Level Kansas City Center
Thu 03:04:01 PM 36.9886 -95.7342 79° East 578 665 41,000  Level Kansas City Center
Thu 03:05:02 PM 37.0217 -95.5336 78° East 581 669 41,000  Level Kansas City Center
Thu 03:06:03 PM 37.0539 -95.3314 79° East 585 673 41,000  Level Kansas City Center
Thu 03:07:07 PM 37.0853 -95.1294 79° East 586 674 41,000  Level Kansas City Center
Thu 03:08:09 PM 37.1183 -94.9281 78° East 586 674 41,000  Level Kansas City Center
Thu 03:09:10 PM 37.1486 -94.7258 79° East 587 676 41,000  Level Kansas City Center
Thu 03:10:11 PM 37.1806 -94.5222 79° East 591 680 41,000  Level Kansas City Center
Thu 03:11:14 PM 37.2106 -94.3186 79° East 591 680 41,000  Level Kansas City Center
Thu 03:12:15 PM 37.2403 -94.1147 80° East 591 680 41,000  Level Kansas City Center
Thu 03:13:18 PM 37.2739 -93.8983 79° East 596 686 41,000  Level Kansas City Center
Thu 03:14:20 PM 37.3033 -93.6933 80° East 596 686 41,000  Level Kansas City Center
Thu 03:15:22 PM 37.3389 -93.4481 80° East 595 685 41,000  Level Kansas City Center
Thu 03:16:22 PM 37.3669 -93.2422 80° East 596 686 41,000  Level Kansas City Center
Thu 03:17:25 PM 37.3894 -93.0358 82° East 597 687 41,000  Level Kansas City Center
Thu 03:18:26 PM 37.4133 -92.8283 82° East 598 688 41,000  Level Kansas City Center
Thu 03:19:30 PM 37.4361 -92.6189 82° East 604 695 41,000  Level Kansas City Center
Thu 03:20:32 PM 37.4597 -92.4122 82° East 602 693 41,000  Level Kansas City Center
Thu 03:21:32 PM 37.4850 -92.1647 83° East 599 689 41,000  Level Kansas City Center
Thu 03:22:34 PM 37.5072 -91.9597 82° East 597 687 41,000  Level Kansas City Center
Thu 03:23:37 PM 37.5289 -91.7514 82° East 599 689 41,000  Level Kansas City Center
Thu 03:24:38 PM 37.5497 -91.5436 83° East 599 689 41,000  Level Kansas City Center
Thu 03:25:41 PM 37.5711 -91.3342 83° East 601 692 41,000  Level Kansas City Center
Thu 03:26:42 PM 37.5914 -91.1247 83° East 602 693 41,000  Level Kansas City Center
Thu 03:27:45 PM 37.6156 -90.8719 83° East 604 695 41,000  Level Kansas City Center
Thu 03:28:46 PM 37.6314 -90.6956 83° East 606 697 41,000  Level Kansas City Center
Thu 03:29:49 PM 37.6539 -90.4458 83° East 603 694 41,000  Level Kansas City Center
Thu 03:30:50 PM 37.6719 -90.2347 84° East 606 697 41,000  Level Kansas City Center
Thu 03:31:53 PM 37.6956 -90.0267 82° East 606 697 41,000  Level Kansas City Center
Thu 03:32:54 PM 37.7186 -89.8192 82° East 603 694 41,000  Level Kansas City Center
Thu 03:33:54 PM 37.7406 -89.6122 82° East 601 692 41,000  Level Kansas City Center
Thu 03:34:58 PM 37.7619 -89.4061 82° East 599 689 41,000  Level Kansas City Center
Thu 03:35:59 PM 37.7850 -89.1808 83° East 599 689 41,000  Level Kansas City Center
Thu 03:37:00 PM 37.8092 -88.9497 82° East 598 688 41,000  Level Kansas City Center
Thu 03:38:03 PM 37.8281 -88.7439 83° East 594 684 41,000  Level Kansas City Center
Thu 03:39:05 PM 37.8511 -88.5450 82° East 596 686 41,000  Level Kansas City Center
Thu 03:40:06 PM 37.8772 -88.2919 82° East 602 693 41,000  Level Kansas City Center
Thu 03:41:09 PM 37.8967 -88.0792 83° East 605 696 41,000  Level Kansas City Center
Thu 03:42:10 PM 37.9172 -87.8678 83° East 605 696 41,000  Level Kansas City Center
Thu 03:43:13 PM 37.9367 -87.6556 83° East 606 697 41,000  Level Kansas City Center
Thu 03:44:34 PM 37.9633 -87.3589 83° East 605 696 41,000  Level Indianapolis Center
Thu 03:45:35 PM 37.9803 -87.1486 84° East 606 697 41,000  Level Indianapolis Center
Thu 03:46:37 PM 37.9989 -86.9389 84° East 606 697 41,000  Level Indianapolis Center
Thu 03:47:39 PM 38.0156 -86.7278 84° East 607 699 41,000  Level Indianapolis Center
Thu 03:48:41 PM 38.0353 -86.4756 84° East 603 694 41,000  Level Indianapolis Center
Thu 03:49:43 PM 38.0519 -86.2658 84° East 599 689 41,000  Level Indianapolis Center
Thu 03:50:45 PM 38.0681 -86.0547 84° East 601 692 41,000  Level Indianapolis Center
Thu 03:51:47 PM 38.0836 -85.8447 85° East 598 688 41,000  Level Indianapolis Center
Thu 03:52:49 PM 38.0969 -85.6333 85° East 602 693 41,000  Level Indianapolis Center
Thu 03:53:51 PM 38.0806 -85.4244 96° East 597 687 41,000  Level Indianapolis Center
Thu 03:54:53 PM 38.0411 -85.1803 102° East 591 680 41,000  Level Indianapolis Center
Thu 03:55:54 PM 38.0106 -84.9761 101° East 591 680 41,000  Level Indianapolis Center
Thu 03:56:56 PM 37.9764 -84.7731 102° East 587 676 41,000  Level Indianapolis Center
Thu 03:57:58 PM 37.9433 -84.5708 102° East 586 674 41,000  Level Indianapolis Center
Thu 03:59:00 PM 37.9111 -84.3711 101° East 578 665 41,000  Level Indianapolis Center
Thu 04:00:02 PM 37.8769 -84.1683 102° East 586 674 41,000  Level Indianapolis Center
Thu 04:01:04 PM 37.8367 -83.9297 102° East 594 684 41,000  Level Indianapolis Center
Thu 04:02:06 PM 37.8028 -83.7225 102° East 597 687 41,000  Level Indianapolis Center
Thu 04:03:08 PM 37.7678 -83.5189 102° East 595 685 41,000  Level Indianapolis Center
Thu 04:04:10 PM 37.7331 -83.3139 102° East 593 682 41,000  Level Indianapolis Center
Thu 04:05:12 PM 37.6969 -83.1078 102° East 597 687 41,000  Level Indianapolis Center
Thu 04:06:14 PM 37.6592 -82.9025 103° East 597 687 41,000  Level Indianapolis Center
Thu 04:07:16 PM 37.6425 -82.6939 96° East 603 694 41,000  Level Indianapolis Center
Thu 04:08:18 PM 37.6625 -82.4422 84° East 617 710 41,000  Level Indianapolis Center
Thu 04:09:19 PM 37.6828 -82.2269 83° East 616 709 41,000  Level Indianapolis Center
Thu 04:10:21 PM 37.7036 -82.0144 83° East 610 702 41,000  Level Indianapolis Center
Thu 04:11:23 PM 37.7236 -81.7972 83° East 618 711 41,000  Level Indianapolis Center
Thu 04:12:25 PM 37.7425 -81.5819 84° East 618 711 41,000  Level Indianapolis Center
Thu 04:13:27 PM 37.7597 -81.3611 84° East 618 711 41,000  Level Indianapolis Center
Thu 04:14:29 PM 37.7775 -81.1489 84° East 621 715 41,000  Level Indianapolis Center
Thu 04:15:31 PM 37.7950 -80.8950 85° East 620 713 41,000  Level Indianapolis Center
Thu 04:16:33 PM 37.8089 -80.6817 85° East 623 717 41,000  Level Indianapolis Center
Thu 04:17:14 PM 37.8164 -80.5497 86° East 614 707 41,000  Level Washington Center
Thu 04:18:13 PM 37.8344 -80.3064 85° East 619 712 41,000  Level Washington Center
Thu 04:19:14 PM 37.8758 -80.0958 76° East 624 718 41,000  Level Washington Center
Thu 04:20:15 PM 37.9458 -79.8947 66° East 617 710 41,000  Level Washington Center
Thu 04:21:15 PM 38.0175 -79.6958 65° Northeast 617 710 41,000 -151 Level Washington Center
Thu 04:22:14 PM 38.0867 -79.4964 66° East 617 710 40,700 -1,916 Descending Washington Center
Thu 04:23:14 PM 38.1556 -79.3019 66° East 612 704 37,200 -4,050 Descending Washington Center
Thu 04:24:14 PM 38.2147 -79.1356 66° East 590 679 32,600 -4,463 Descending Washington Center
Thu 04:25:15 PM 38.2761 -78.9614 66° East 562 647 28,200 -2,824 Descending Washington Center
Thu 04:26:13 PM 38.3400 -78.7631 68° East 546 628 27,000 -610 Descending Washington Center
Thu 04:27:13 PM 38.4031 -78.5803 66° East 552 635 27,000 -850 Level Washington Center
Thu 04:28:13 PM 38.4617 -78.3997 67° East 552 635 25,300 -2,164 Descending Washington Center
Thu 04:29:15 PM 38.5197 -78.2267 67° East 546 628 22,600 -2,579 Descending Washington Center
Thu 04:30:14 PM 38.5775 -78.0589 66° East 533 613 20,100 -1,800 Descending Washington Center
Thu 04:31:15 PM 38.6286 -77.8931 68° East 515 593 19,000 -605 Descending Washington Center
Thu 04:32:13 PM 38.6506 -77.7183 81° East 502 578 18,900 -555 Descending Washington Center
Thu 04:33:14 PM 38.6411 -77.5425 94° East 487 560 17,900 -1,377 Descending Washington Center
Thu 04:34:15 PM 38.6208 -77.3800 99° East 487 560 16,100 -958 Descending Washington Center
Thu 04:35:13 PM 38.6039 -77.2414 99° East 442 509 16,000 -661 Descending Washington Center
Thu 04:36:13 PM 38.5869 -77.1056 99° East 405 466 14,800 -1,140 Descending Washington Center
Thu 04:37:14 PM 38.5947 -76.9756 86° East 376 433 13,700 -1,180 Descending Washington Center
Thu 04:38:15 PM 38.6128 -76.8617 78° East 346 398 12,400 -1,311 Descending Washington Center
Thu 04:39:13 PM 38.6242 -76.7689 81° East 338 389 11,100 -1,831 Descending Washington Center
Thu 04:41:12 PM 38.7167 -76.5833 57° Northeast 290 334 7,000 -1,709 Descending Potomac TRACON
Thu 04:42:12 PM 38.7833 -76.5500 21° North 267 307 6,000 -900 Descending Potomac TRACON
Thu 04:43:12 PM 38.8667 -76.5333 North 269 310 5,200 -900 Descending Potomac TRACON
Thu 04:44:12 PM 38.9333 -76.5333 360° North 270 311 4,200 -950 Descending Potomac TRACON
Thu 04:45:12 PM 39.0167 -76.5333 360° North 263 303 3,300 -750 Descending Potomac TRACON
Thu 04:46:12 PM 39.0667 -76.5667 333° Northwest 213 245 2,700 -762 Descending Potomac TRACON
Thu 04:47:18 PM 39.1167 -76.6000 333° Northwest 154 177 1,700 -893 Descending Potomac TRACON
Thu 04:48:13 PM 39.1500 -76.6167 339° North 134 154 900 -873 Descending Potomac TRACON
Thu 04:50:00 PM 39.1667 -76.6667 339° North  Level FlightAware Approximate
Thu 04:57:00 PM 39.1754 -76.6683 339° North  Level Estimated
Thu 04:58:00 PM 39.1754 -76.6683 339° North  Level Estimated
Thu 04:59:00 PM 39.1754 -76.6683 339° North  Level Estimated
Thu 05:00:00 PM 39.1754 -76.6683 339° North  Level Estimated

Login

Don't have an account? Register now (free) for customized features, flight alerts, and more!